TimeMST,TemperatureF,Dew PointF,Humidity,Sea Level PressureIn,VisibilityMPH,Wind Direction,Wind SpeedMPH,Gust SpeedMPH,PrecipitationIn,Events,Conditions,WindDirDegrees,DateUTC
12:15 AM,21.2,17.6,86,29.67,10.0,North,17.3,21.9,N/A,,Overcast,360,2012-11-10 07:15:00
12:35 AM,21.2,17.6,86,29.69,10.0,NNW,11.5,17.3,N/A,,Overcast,340,2012-11-10 07:35:00
12:55 AM,21.2,15.8,80,29.68,10.0,North,15.0,-,N/A,,Overcast,350,2012-11-10 07:55:00
1:15 AM,21.2,15.8,80,29.68,8.0,North,13.8,18.4,N/A,,Overcast,360,2012-11-10 08:15:00
1:35 AM,19.4,15.8,86,29.68,5.0,North,13.8,-,N/A,,Overcast,350,2012-11-10 08:35:00
1:55 AM,19.4,15.8,86,29.67,10.0,North,16.1,23.0,N/A,,Overcast,360,2012-11-10 08:55:00
2:15 AM,19.4,15.8,86,29.68,10.0,North,16.1,-,N/A,,Overcast,350,2012-11-10 09:15:00
2:35 AM,19.4,15.8,86,29.68,10.0,NNW,13.8,19.6,N/A,,Overcast,340,2012-11-10 09:35:00
3:15 AM,19.4,14.0,80,29.68,10.0,North,16.1,19.6,N/A,,Mostly Cloudy,350,2012-11-10 10:15:00
3:35 AM,17.6,15.8,93,29.68,10.0,NNW,12.7,19.6,N/A,,Mostly Cloudy,340,2012-11-10 10:35:00
3:55 AM,17.6,14.0,86,29.68,10.0,NNW,16.1,-,N/A,,Overcast,340,2012-11-10 10:55:00
4:15 AM,17.6,14.0,86,29.68,10.0,North,12.7,-,N/A,,Overcast,360,2012-11-10 11:15:00
5:35 AM,17.6,14.0,86,29.70,4.0,North,16.1,19.6,N/A,,Overcast,350,2012-11-10 12:35:00
6:15 AM,17.6,12.2,79,29.70,10.0,North,17.3,-,N/A,,Overcast,350,2012-11-10 13:15:00
6:35 AM,15.8,12.2,86,29.71,5.0,North,13.8,-,N/A,,Overcast,360,2012-11-10 13:35:00
6:55 AM,15.8,14.0,93,29.72,2.5,North,11.5,17.3,N/A,,Overcast,350,2012-11-10 13:55:00
7:15 AM,15.8,12.2,86,29.72,2.5,North,10.4,-,N/A,,Overcast,350,2012-11-10 14:15:00
7:35 AM,15.8,12.2,86,29.73,3.0,North,13.8,19.6,N/A,,Overcast,360,2012-11-10 14:35:00
7:55 AM,15.8,12.2,86,29.74,2.5,North,12.7,-,N/A,,Overcast,350,2012-11-10 14:55:00
8:15 AM,15.8,12.2,86,29.74,4.0,NNW,13.8,20.7,N/A,,Overcast,340,2012-11-10 15:15:00
8:35 AM,15.8,10.4,79,29.74,4.0,NNW,15.0,20.7,N/A,,Overcast,340,2012-11-10 15:35:00
8:55 AM,15.8,10.4,79,29.74,4.0,NNW,16.1,19.6,N/A,,Overcast,340,2012-11-10 15:55:00
9:15 AM,15.8,10.4,79,29.74,9.0,NNW,12.7,19.6,N/A,,Overcast,340,2012-11-10 16:15:00
9:35 AM,15.8,10.4,79,29.74,10.0,NNW,12.7,-,N/A,,Overcast,330,2012-11-10 16:35:00
9:55 AM,15.8,10.4,79,29.74,10.0,NNW,11.5,-,N/A,,Overcast,330,2012-11-10 16:55:00
10:15 AM,15.8,10.4,79,29.75,10.0,North,12.7,20.7,N/A,,Overcast,350,2012-11-10 17:15:00
10:35 AM,15.8,10.4,79,29.76,8.0,North,13.8,21.9,N/A,,Overcast,360,2012-11-10 17:35:00
10:55 AM,15.8,10.4,79,29.76,9.0,North,16.1,-,N/A,,Overcast,360,2012-11-10 17:55:00
11:15 AM,15.8,10.4,79,29.76,10.0,North,12.7,-,N/A,,Overcast,360,2012-11-10 18:15:00
11:35 AM,15.8,10.4,79,29.76,10.0,North,16.1,-,N/A,,Overcast,360,2012-11-10 18:35:00
11:55 AM,15.8,10.4,79,29.76,10.0,NNW,16.1,-,N/A,,Mostly Cloudy,340,2012-11-10 18:55:00
12:15 PM,15.8,8.6,73,29.76,10.0,North,17.3,-,N/A,,Overcast,360,2012-11-10 19:15:00
12:35 PM,15.8,10.4,79,29.76,10.0,North,17.3,20.7,N/A,,Mostly Cloudy,360,2012-11-10 19:35:00
12:55 PM,15.8,10.4,79,29.76,10.0,North,16.1,20.7,N/A,,Scattered Clouds,350,2012-11-10 19:55:00
1:15 PM,15.8,10.4,79,29.76,10.0,North,16.1,21.9,N/A,,Partly Cloudy,360,2012-11-10 20:15:00
1:35 PM,14.0,8.6,79,29.76,10.0,North,10.4,21.9,N/A,,Mostly Cloudy,10,2012-11-10 20:35:00
1:55 PM,15.8,8.6,73,29.76,10.0,North,12.7,-,N/A,,Mostly Cloudy,10,2012-11-10 20:55:00
2:15 PM,14.0,8.6,79,29.77,10.0,North,12.7,-,N/A,,Mostly Cloudy,10,2012-11-10 21:15:00
2:35 PM,14.0,8.6,79,29.77,10.0,North,13.8,-,N/A,,Mostly Cloudy,10,2012-11-10 21:35:00
2:55 PM,14.0,10.4,86,29.78,10.0,North,11.5,-,N/A,,Mostly Cloudy,360,2012-11-10 21:55:00
3:15 PM,12.2,10.4,92,29.80,10.0,North,11.5,-,N/A,,Mostly Cloudy,10,2012-11-10 22:15:00
3:35 PM,12.2,8.6,85,29.80,10.0,NNE,12.7,18.4,N/A,,Scattered Clouds,20,2012-11-10 22:35:00
3:55 PM,12.2,8.6,85,29.81,10.0,NNE,9.2,17.3,N/A,,Mostly Cloudy,20,2012-11-10 22:55:00
4:15 PM,10.4,8.6,92,29.82,10.0,NNE,13.8,17.3,N/A,,Mostly Cloudy,20,2012-11-10 23:15:00
4:35 PM,10.4,8.6,92,29.83,10.0,NNE,12.7,-,N/A,,Overcast,20,2012-11-10 23:35:00
4:55 PM,10.4,6.8,85,29.84,9.0,NNE,10.4,-,N/A,,Mostly Cloudy,20,2012-11-10 23:55:00
5:15 PM,10.4,8.6,92,29.84,5.0,NNE,10.4,-,N/A,,Overcast,30,2012-11-11 00:15:00
5:35 PM,10.4,8.6,92,29.85,5.0,NNE,10.4,-,N/A,,Overcast,30,2012-11-11 00:35:00
5:55 PM,10.4,6.8,85,29.86,8.0,NNE,6.9,-,N/A,,Overcast,30,2012-11-11 00:55:00
6:15 PM,10.4,6.8,85,29.87,10.0,NNE,5.8,-,N/A,,Overcast,30,2012-11-11 01:15:00
6:35 PM,8.6,6.8,92,29.87,10.0,NE,6.9,-,N/A,,Overcast,40,2012-11-11 01:35:00
6:55 PM,8.6,6.8,92,29.88,10.0,NNE,5.8,-,N/A,,Mostly Cloudy,30,2012-11-11 01:55:00
7:15 PM,6.8,5.0,92,29.88,10.0,Calm,Calm,-,N/A,,Partly Cloudy,0,2012-11-11 02:15:00
7:35 PM,8.6,6.8,92,29.88,10.0,Calm,Calm,-,N/A,,Clear,0,2012-11-11 02:35:00
7:55 PM,6.8,5.0,92,29.89,10.0,South,4.6,-,N/A,,Scattered Clouds,180,2012-11-11 02:55:00
8:15 PM,6.8,3.2,85,29.88,10.0,South,5.8,-,N/A,,Partly Cloudy,180,2012-11-11 03:15:00
8:35 PM,6.8,3.2,85,29.89,10.0,SSE,6.9,-,N/A,,Clear,160,2012-11-11 03:35:00
9:15 PM,5.0,3.2,92,29.89,10.0,South,6.9,-,N/A,,Clear,180,2012-11-11 04:15:00
9:35 PM,3.2,-0.4,85,29.89,10.0,South,9.2,-,N/A,,Clear,170,2012-11-11 04:35:00
9:55 PM,3.2,1.4,92,29.88,10.0,South,8.1,-,N/A,,Clear,180,2012-11-11 04:55:00
10:15 PM,3.2,1.4,92,29.87,10.0,South,5.8,-,N/A,,Clear,170,2012-11-11 05:15:00
10:35 PM,3.2,-0.4,85,29.88,10.0,SSE,8.1,-,N/A,,Clear,160,2012-11-11 05:35:00
11:15 PM,3.2,-2.2,78,29.88,10.0,South,5.8,-,N/A,,Partly Cloudy,180,2012-11-11 06:15:00
11:35 PM,1.4,-0.4,92,29.88,10.0,SW,5.8,-,N/A,,Clear,230,2012-11-11 06:35:00
11:55 PM,3.2,1.4,92,29.89,10.0,Calm,Calm,-,N/A,,Clear,0,2012-11-11 06:55:00